sensor_id;sensor_type;location;lat;lon;timestamp;P1;durP1;ratioP1;P2;durP2;ratioP2
5871;SDS011;2962;51.312;7.378;2023-10-31T00:01:51;4.87;;;4.73;;
5871;SDS011;2962;51.312;7.378;2023-10-31T00:04:16;3.83;;;3.73;;
5871;SDS011;2962;51.312;7.378;2023-10-31T00:06:42;4.97;;;4.73;;
5871;SDS011;2962;51.312;7.378;2023-10-31T00:09:08;4.17;;;4.07;;
5871;SDS011;2962;51.312;7.378;2023-10-31T00:11:33;3.37;;;3.23;;
5871;SDS011;2962;51.312;7.378;2023-10-31T00:13:58;3.73;;;3.53;;
5871;SDS011;2962;51.312;7.378;2023-10-31T00:16:24;1.90;;;1.90;;
5871;SDS011;2962;51.312;7.378;2023-10-31T00:18:49;1.57;;;1.57;;
5871;SDS011;2962;51.312;7.378;2023-10-31T00:21:14;3.03;;;2.93;;
5871;SDS011;2962;51.312;7.378;2023-10-31T00:23:43;3.83;;;2.70;;
5871;SDS011;2962;51.312;7.378;2023-10-31T00:26:09;3.03;;;3.00;;
5871;SDS011;2962;51.312;7.378;2023-10-31T00:28:35;1.87;;;1.87;;
5871;SDS011;2962;51.312;7.378;2023-10-31T00:31:00;2.80;;;2.70;;
5871;SDS011;2962;51.312;7.378;2023-10-31T00:33:25;3.10;;;3.00;;
5871;SDS011;2962;51.312;7.378;2023-10-31T00:35:51;5.30;;;3.13;;
5871;SDS011;2962;51.312;7.378;2023-10-31T00:38:16;2.20;;;2.10;;
5871;SDS011;2962;51.312;7.378;2023-10-31T00:40:41;3.27;;;3.27;;
5871;SDS011;2962;51.312;7.378;2023-10-31T00:43:06;5.80;;;2.40;;
5871;SDS011;2962;51.312;7.378;2023-10-31T00:45:32;2.33;;;1.83;;
5871;SDS011;2962;51.312;7.378;2023-10-31T00:47:57;1.80;;;1.80;;
5871;SDS011;2962;51.312;7.378;2023-10-31T00:50:22;2.03;;;2.03;;
5871;SDS011;2962;51.312;7.378;2023-10-31T00:52:47;1.70;;;1.70;;
5871;SDS011;2962;51.312;7.378;2023-10-31T00:55:13;1.70;;;1.70;;
5871;SDS011;2962;51.312;7.378;2023-10-31T00:57:38;1.77;;;1.77;;
5871;SDS011;2962;51.312;7.378;2023-10-31T01:00:03;1.70;;;1.70;;
5871;SDS011;2962;51.312;7.378;2023-10-31T01:02:29;1.63;;;1.63;;
5871;SDS011;2962;51.312;7.378;2023-10-31T01:04:54;2.40;;;2.40;;
5871;SDS011;2962;51.312;7.378;2023-10-31T01:07:19;2.57;;;2.57;;
5871;SDS011;2962;51.312;7.378;2023-10-31T01:09:45;3.07;;;3.07;;
5871;SDS011;2962;51.312;7.378;2023-10-31T01:12:10;2.00;;;2.00;;
5871;SDS011;2962;51.312;7.378;2023-10-31T01:14:36;2.60;;;2.50;;
5871;SDS011;2962;51.312;7.378;2023-10-31T01:17:01;2.77;;;2.77;;
5871;SDS011;2962;51.312;7.378;2023-10-31T01:19:26;3.73;;;3.30;;
5871;SDS011;2962;51.312;7.378;2023-10-31T01:21:52;3.00;;;2.83;;
5871;SDS011;2962;51.312;7.378;2023-10-31T01:24:17;2.53;;;2.53;;
5871;SDS011;2962;51.312;7.378;2023-10-31T01:26:42;3.07;;;2.97;;
5871;SDS011;2962;51.312;7.378;2023-10-31T01:29:07;2.80;;;2.80;;
5871;SDS011;2962;51.312;7.378;2023-10-31T01:31:33;3.93;;;3.73;;
5871;SDS011;2962;51.312;7.378;2023-10-31T01:33:59;2.90;;;2.80;;
5871;SDS011;2962;51.312;7.378;2023-10-31T01:36:25;4.03;;;3.57;;
5871;SDS011;2962;51.312;7.378;2023-10-31T01:38:51;3.07;;;3.07;;
5871;SDS011;2962;51.312;7.378;2023-10-31T01:41:16;4.00;;;3.90;;
5871;SDS011;2962;51.312;7.378;2023-10-31T01:43:42;2.60;;;2.60;;
5871;SDS011;2962;51.312;7.378;2023-10-31T01:46:07;3.27;;;3.17;;
5871;SDS011;2962;51.312;7.378;2023-10-31T01:48:33;4.00;;;3.90;;
5871;SDS011;2962;51.312;7.378;2023-10-31T01:50:59;4.00;;;3.90;;
5871;SDS011;2962;51.312;7.378;2023-10-31T01:53:25;2.33;;;2.33;;
5871;SDS011;2962;51.312;7.378;2023-10-31T01:55:53;3.50;;;3.50;;
5871;SDS011;2962;51.312;7.378;2023-10-31T01:58:21;4.30;;;3.90;;
5871;SDS011;2962;51.312;7.378;2023-10-31T02:00:50;3.27;;;3.17;;
5871;SDS011;2962;51.312;7.378;2023-10-31T02:03:16;3.20;;;3.17;;
5871;SDS011;2962;51.312;7.378;2023-10-31T02:05:41;3.37;;;3.17;;
5871;SDS011;2962;51.312;7.378;2023-10-31T02:08:07;2.67;;;2.57;;
5871;SDS011;2962;51.312;7.378;2023-10-31T02:10:33;2.00;;;1.90;;
5871;SDS011;2962;51.312;7.378;2023-10-31T02:13:09;2.53;;;2.33;;
5871;SDS011;2962;51.312;7.378;2023-10-31T02:15:35;2.80;;;2.70;;
5871;SDS011;2962;51.312;7.378;2023-10-31T02:18:00;2.97;;;2.90;;
5871;SDS011;2962;51.312;7.378;2023-10-31T02:20:25;4.37;;;3.20;;
5871;SDS011;2962;51.312;7.378;2023-10-31T02:22:51;3.73;;;3.37;;
5871;SDS011;2962;51.312;7.378;2023-10-31T02:25:16;4.80;;;3.47;;
5871;SDS011;2962;51.312;7.378;2023-10-31T02:27:43;3.00;;;2.90;;
5871;SDS011;2962;51.312;7.378;2023-10-31T02:30:08;2.30;;;2.30;;
5871;SDS011;2962;51.312;7.378;2023-10-31T02:32:34;3.30;;;3.20;;
5871;SDS011;2962;51.312;7.378;2023-10-31T02:34:59;7.07;;;4.47;;
5871;SDS011;2962;51.312;7.378;2023-10-31T02:37:24;2.97;;;2.87;;
5871;SDS011;2962;51.312;7.378;2023-10-31T02:39:49;3.97;;;3.67;;
5871;SDS011;2962;51.312;7.378;2023-10-31T02:42:15;4.90;;;4.50;;
5871;SDS011;2962;51.312;7.378;2023-10-31T02:44:40;6.20;;;5.60;;
5871;SDS011;2962;51.312;7.378;2023-10-31T02:47:05;7.17;;;6.47;;
5871;SDS011;2962;51.312;7.378;2023-10-31T02:49:30;13.00;;;7.80;;
5871;SDS011;2962;51.312;7.378;2023-10-31T02:51:56;8.80;;;7.70;;
5871;SDS011;2962;51.312;7.378;2023-10-31T02:54:21;17.03;;;9.47;;
5871;SDS011;2962;51.312;7.378;2023-10-31T02:56:46;11.57;;;7.97;;
5871;SDS011;2962;51.312;7.378;2023-10-31T02:59:11;8.63;;;7.43;;
5871;SDS011;2962;51.312;7.378;2023-10-31T03:01:37;14.77;;;9.40;;
5871;SDS011;2962;51.312;7.378;2023-10-31T03:04:02;8.67;;;6.37;;
5871;SDS011;2962;51.312;7.378;2023-10-31T03:06:27;18.33;;;9.70;;
5871;SDS011;2962;51.312;7.378;2023-10-31T03:08:53;10.67;;;7.40;;
5871;SDS011;2962;51.312;7.378;2023-10-31T03:11:24;12.97;;;9.43;;
5871;SDS011;2962;51.312;7.378;2023-10-31T03:13:51;21.60;;;11.90;;
5871;SDS011;2962;51.312;7.378;2023-10-31T03:16:17;18.97;;;10.47;;
5871;SDS011;2962;51.312;7.378;2023-10-31T03:18:43;7.10;;;6.10;;
5871;SDS011;2962;51.312;7.378;2023-10-31T03:21:08;14.87;;;10.43;;
5871;SDS011;2962;51.312;7.378;2023-10-31T03:23:33;13.60;;;10.17;;
5871;SDS011;2962;51.312;7.378;2023-10-31T03:25:58;7.23;;;4.73;;
5871;SDS011;2962;51.312;7.378;2023-10-31T03:28:24;10.70;;;8.47;;
5871;SDS011;2962;51.312;7.378;2023-10-31T03:30:49;12.60;;;7.07;;
5871;SDS011;2962;51.312;7.378;2023-10-31T03:33:15;9.20;;;7.60;;
5871;SDS011;2962;51.312;7.378;2023-10-31T03:35:42;8.37;;;6.23;;
5871;SDS011;2962;51.312;7.378;2023-10-31T03:38:07;8.80;;;6.97;;
5871;SDS011;2962;51.312;7.378;2023-10-31T03:40:33;5.80;;;5.37;;
5871;SDS011;2962;51.312;7.378;2023-10-31T03:42:58;6.83;;;5.57;;
5871;SDS011;2962;51.312;7.378;2023-10-31T03:45:23;6.67;;;6.03;;
5871;SDS011;2962;51.312;7.378;2023-10-31T03:47:49;6.90;;;6.30;;
5871;SDS011;2962;51.312;7.378;2023-10-31T03:50:14;7.30;;;6.70;;
5871;SDS011;2962;51.312;7.378;2023-10-31T03:52:39;13.07;;;6.40;;
5871;SDS011;2962;51.312;7.378;2023-10-31T03:55:05;11.63;;;6.30;;
5871;SDS011;2962;51.312;7.378;2023-10-31T03:57:31;11.13;;;5.90;;
5871;SDS011;2962;51.312;7.378;2023-10-31T03:59:56;7.73;;;6.63;;
5871;SDS011;2962;51.312;7.378;2023-10-31T04:02:21;9.30;;;7.57;;
5871;SDS011;2962;51.312;7.378;2023-10-31T04:04:47;6.37;;;5.87;;
5871;SDS011;2962;51.312;7.378;2023-10-31T04:07:12;8.40;;;6.03;;
5871;SDS011;2962;51.312;7.378;2023-10-31T04:09:37;9.70;;;7.40;;
5871;SDS011;2962;51.312;7.378;2023-10-31T04:12:03;7.97;;;7.17;;
5871;SDS011;2962;51.312;7.378;2023-10-31T04:14:28;7.60;;;5.43;;
5871;SDS011;2962;51.312;7.378;2023-10-31T04:16:54;9.60;;;6.40;;
5871;SDS011;2962;51.312;7.378;2023-10-31T04:19:19;12.83;;;6.40;;
5871;SDS011;2962;51.312;7.378;2023-10-31T04:21:44;10.40;;;5.07;;
5871;SDS011;2962;51.312;7.378;2023-10-31T04:24:09;6.20;;;5.63;;
5871;SDS011;2962;51.312;7.378;2023-10-31T04:26:35;7.20;;;5.50;;
5871;SDS011;2962;51.312;7.378;2023-10-31T04:29:00;6.67;;;5.70;;
5871;SDS011;2962;51.312;7.378;2023-10-31T04:31:25;7.93;;;6.80;;
5871;SDS011;2962;51.312;7.378;2023-10-31T04:33:50;8.53;;;6.97;;
5871;SDS011;2962;51.312;7.378;2023-10-31T04:36:16;8.87;;;7.17;;
5871;SDS011;2962;51.312;7.378;2023-10-31T04:38:41;7.53;;;5.57;;
5871;SDS011;2962;51.312;7.378;2023-10-31T04:41:07;8.23;;;6.77;;
5871;SDS011;2962;51.312;7.378;2023-10-31T04:43:33;5.40;;;4.57;;
5871;SDS011;2962;51.312;7.378;2023-10-31T04:45:58;7.10;;;6.50;;
5871;SDS011;2962;51.312;7.378;2023-10-31T04:48:23;7.30;;;6.67;;
5871;SDS011;2962;51.312;7.378;2023-10-31T04:50:48;6.60;;;6.00;;
5871;SDS011;2962;51.312;7.378;2023-10-31T04:53:14;7.10;;;6.60;;
5871;SDS011;2962;51.312;7.378;2023-10-31T04:55:39;9.40;;;7.10;;
5871;SDS011;2962;51.312;7.378;2023-10-31T04:58:04;8.60;;;6.60;;
5871;SDS011;2962;51.312;7.378;2023-10-31T05:00:30;8.07;;;5.83;;
5871;SDS011;2962;51.312;7.378;2023-10-31T05:02:55;7.10;;;6.50;;
5871;SDS011;2962;51.312;7.378;2023-10-31T05:05:21;6.33;;;5.60;;
5871;SDS011;2962;51.312;7.378;2023-10-31T05:07:47;7.27;;;6.57;;
5871;SDS011;2962;51.312;7.378;2023-10-31T05:10:12;6.57;;;5.87;;
5871;SDS011;2962;51.312;7.378;2023-10-31T05:12:37;7.70;;;7.00;;
5871;SDS011;2962;51.312;7.378;2023-10-31T05:15:03;6.90;;;6.20;;
5871;SDS011;2962;51.312;7.378;2023-10-31T05:17:29;10.63;;;5.73;;
5871;SDS011;2962;51.312;7.378;2023-10-31T05:19:54;9.17;;;7.03;;
5871;SDS011;2962;51.312;7.378;2023-10-31T05:22:19;12.33;;;6.53;;
5871;SDS011;2962;51.312;7.378;2023-10-31T05:24:44;6.87;;;6.27;;
5871;SDS011;2962;51.312;7.378;2023-10-31T05:27:10;10.50;;;5.67;;
5871;SDS011;2962;51.312;7.378;2023-10-31T05:29:35;6.40;;;5.90;;
5871;SDS011;2962;51.312;7.378;2023-10-31T05:32:02;9.43;;;7.07;;
5871;SDS011;2962;51.312;7.378;2023-10-31T05:34:28;8.70;;;7.80;;
5871;SDS011;2962;51.312;7.378;2023-10-31T05:36:53;9.97;;;7.80;;
5871;SDS011;2962;51.312;7.378;2023-10-31T05:39:19;5.70;;;5.37;;
5871;SDS011;2962;51.312;7.378;2023-10-31T05:41:44;11.43;;;7.80;;
5871;SDS011;2962;51.312;7.378;2023-10-31T05:44:09;8.07;;;7.27;;
5871;SDS011;2962;51.312;7.378;2023-10-31T05:46:38;9.13;;;8.17;;
5871;SDS011;2962;51.312;7.378;2023-10-31T05:49:06;8.80;;;6.80;;
5871;SDS011;2962;51.312;7.378;2023-10-31T05:51:31;9.00;;;5.70;;
5871;SDS011;2962;51.312;7.378;2023-10-31T05:53:57;9.10;;;8.17;;
5871;SDS011;2962;51.312;7.378;2023-10-31T05:56:22;7.53;;;6.80;;
5871;SDS011;2962;51.312;7.378;2023-10-31T05:58:48;6.37;;;5.77;;
5871;SDS011;2962;51.312;7.378;2023-10-31T06:01:13;10.43;;;7.80;;
5871;SDS011;2962;51.312;7.378;2023-10-31T06:03:40;8.13;;;7.43;;
5871;SDS011;2962;51.312;7.378;2023-10-31T06:06:07;7.80;;;6.67;;
5871;SDS011;2962;51.312;7.378;2023-10-31T06:08:33;7.03;;;5.87;;
5871;SDS011;2962;51.312;7.378;2023-10-31T06:10:58;6.30;;;5.80;;
5871;SDS011;2962;51.312;7.378;2023-10-31T06:13:25;6.03;;;5.53;;
5871;SDS011;2962;51.312;7.378;2023-10-31T06:15:55;3.17;;;3.00;;
5871;SDS011;2962;51.312;7.378;2023-10-31T06:18:22;3.83;;;3.53;;
5871;SDS011;2962;51.312;7.378;2023-10-31T06:20:48;2.33;;;2.17;;
5871;SDS011;2962;51.312;7.378;2023-10-31T06:23:13;3.87;;;3.57;;
5871;SDS011;2962;51.312;7.378;2023-10-31T06:25:38;2.67;;;2.57;;
5871;SDS011;2962;51.312;7.378;2023-10-31T06:28:04;5.03;;;4.53;;
5871;SDS011;2962;51.312;7.378;2023-10-31T06:30:29;3.87;;;3.53;;
5871;SDS011;2962;51.312;7.378;2023-10-31T06:32:54;3.83;;;3.53;;
5871;SDS011;2962;51.312;7.378;2023-10-31T06:35:20;5.97;;;5.33;;
5871;SDS011;2962;51.312;7.378;2023-10-31T06:37:45;6.30;;;5.77;;
5871;SDS011;2962;51.312;7.378;2023-10-31T06:40:10;5.00;;;4.70;;
5871;SDS011;2962;51.312;7.378;2023-10-31T06:42:36;9.00;;;6.40;;
5871;SDS011;2962;51.312;7.378;2023-10-31T06:45:01;4.43;;;4.10;;
5871;SDS011;2962;51.312;7.378;2023-10-31T06:47:27;6.70;;;5.50;;
5871;SDS011;2962;51.312;7.378;2023-10-31T06:49:52;6.90;;;5.93;;
5871;SDS011;2962;51.312;7.378;2023-10-31T06:52:18;9.53;;;6.43;;
5871;SDS011;2962;51.312;7.378;2023-10-31T06:54:43;4.77;;;4.37;;
5871;SDS011;2962;51.312;7.378;2023-10-31T06:57:08;5.53;;;5.03;;
5871;SDS011;2962;51.312;7.378;2023-10-31T06:59:34;6.47;;;5.73;;
5871;SDS011;2962;51.312;7.378;2023-10-31T07:01:59;5.73;;;5.27;;
5871;SDS011;2962;51.312;7.378;2023-10-31T07:04:25;8.53;;;6.53;;
5871;SDS011;2962;51.312;7.378;2023-10-31T07:06:50;7.40;;;6.60;;
5871;SDS011;2962;51.312;7.378;2023-10-31T07:09:22;6.73;;;6.00;;
5871;SDS011;2962;51.312;7.378;2023-10-31T07:11:47;5.97;;;5.20;;
5871;SDS011;2962;51.312;7.378;2023-10-31T07:14:13;6.97;;;6.20;;
5871;SDS011;2962;51.312;7.378;2023-10-31T07:16:38;6.90;;;6.27;;
5871;SDS011;2962;51.312;7.378;2023-10-31T07:19:04;6.03;;;5.57;;
5871;SDS011;2962;51.312;7.378;2023-10-31T07:21:29;8.17;;;7.00;;
5871;SDS011;2962;51.312;7.378;2023-10-31T07:23:54;10.03;;;7.27;;
5871;SDS011;2962;51.312;7.378;2023-10-31T07:26:20;12.83;;;7.07;;
5871;SDS011;2962;51.312;7.378;2023-10-31T07:28:46;6.80;;;6.13;;
5871;SDS011;2962;51.312;7.378;2023-10-31T07:31:13;12.83;;;5.83;;
5871;SDS011;2962;51.312;7.378;2023-10-31T07:33:39;5.77;;;5.27;;
5871;SDS011;2962;51.312;7.378;2023-10-31T07:36:04;7.47;;;6.77;;
5871;SDS011;2962;51.312;7.378;2023-10-31T07:38:30;6.83;;;6.13;;
5871;SDS011;2962;51.312;7.378;2023-10-31T07:40:55;7.70;;;7.03;;
5871;SDS011;2962;51.312;7.378;2023-10-31T07:43:20;13.00;;;8.83;;
5871;SDS011;2962;51.312;7.378;2023-10-31T07:45:46;9.57;;;8.50;;
5871;SDS011;2962;51.312;7.378;2023-10-31T07:48:11;10.70;;;9.03;;
5871;SDS011;2962;51.312;7.378;2023-10-31T07:50:37;14.60;;;8.33;;
5871;SDS011;2962;51.312;7.378;2023-10-31T07:53:02;17.20;;;9.90;;
5871;SDS011;2962;51.312;7.378;2023-10-31T07:55:28;9.23;;;7.70;;
5871;SDS011;2962;51.312;7.378;2023-10-31T07:57:53;13.17;;;6.53;;
5871;SDS011;2962;51.312;7.378;2023-10-31T08:00:18;13.37;;;9.30;;
5871;SDS011;2962;51.312;7.378;2023-10-31T08:02:44;10.80;;;9.23;;
5871;SDS011;2962;51.312;7.378;2023-10-31T08:05:09;12.33;;;9.73;;
5871;SDS011;2962;51.312;7.378;2023-10-31T08:07:36;11.53;;;8.63;;
5871;SDS011;2962;51.312;7.378;2023-10-31T08:10:03;23.33;;;11.37;;
5871;SDS011;2962;51.312;7.378;2023-10-31T08:12:29;13.77;;;7.30;;
5871;SDS011;2962;51.312;7.378;2023-10-31T08:14:55;12.03;;;10.63;;
5871;SDS011;2962;51.312;7.378;2023-10-31T08:17:20;14.77;;;11.30;;
5871;SDS011;2962;51.312;7.378;2023-10-31T08:19:45;14.77;;;9.50;;
5871;SDS011;2962;51.312;7.378;2023-10-31T08:22:12;10.10;;;8.97;;
5871;SDS011;2962;51.312;7.378;2023-10-31T08:24:37;11.53;;;9.80;;
5871;SDS011;2962;51.312;7.378;2023-10-31T08:27:04;14.43;;;10.37;;
5871;SDS011;2962;51.312;7.378;2023-10-31T08:29:29;15.50;;;10.30;;
5871;SDS011;2962;51.312;7.378;2023-10-31T08:31:55;14.53;;;9.83;;
5871;SDS011;2962;51.312;7.378;2023-10-31T08:34:20;14.90;;;9.73;;
5871;SDS011;2962;51.312;7.378;2023-10-31T08:36:45;13.23;;;9.77;;
5871;SDS011;2962;51.312;7.378;2023-10-31T08:39:10;12.03;;;9.93;;
5871;SDS011;2962;51.312;7.378;2023-10-31T08:41:36;15.90;;;10.73;;
5871;SDS011;2962;51.312;7.378;2023-10-31T08:44:03;15.63;;;9.97;;
5871;SDS011;2962;51.312;7.378;2023-10-31T08:46:29;11.33;;;8.73;;
5871;SDS011;2962;51.312;7.378;2023-10-31T08:48:54;17.00;;;11.83;;
5871;SDS011;2962;51.312;7.378;2023-10-31T08:51:19;17.03;;;11.73;;
5871;SDS011;2962;51.312;7.378;2023-10-31T08:53:45;20.53;;;11.20;;
5871;SDS011;2962;51.312;7.378;2023-10-31T08:56:10;18.50;;;11.70;;
5871;SDS011;2962;51.312;7.378;2023-10-31T08:58:35;16.80;;;12.50;;
5871;SDS011;2962;51.312;7.378;2023-10-31T09:01:00;12.17;;;9.97;;
5871;SDS011;2962;51.312;7.378;2023-10-31T09:03:26;8.27;;;6.20;;
5871;SDS011;2962;51.312;7.378;2023-10-31T09:05:51;14.40;;;10.30;;
5871;SDS011;2962;51.312;7.378;2023-10-31T09:08:16;10.77;;;8.10;;
5871;SDS011;2962;51.312;7.378;2023-10-31T09:10:42;14.13;;;10.60;;
5871;SDS011;2962;51.312;7.378;2023-10-31T09:13:10;14.13;;;10.63;;
5871;SDS011;2962;51.312;7.378;2023-10-31T09:15:36;10.17;;;8.70;;
5871;SDS011;2962;51.312;7.378;2023-10-31T09:18:01;12.70;;;7.00;;
5871;SDS011;2962;51.312;7.378;2023-10-31T09:20:27;12.00;;;9.87;;
5871;SDS011;2962;51.312;7.378;2023-10-31T09:22:52;10.77;;;9.53;;
5871;SDS011;2962;51.312;7.378;2023-10-31T09:25:18;13.40;;;9.07;;
5871;SDS011;2962;51.312;7.378;2023-10-31T09:27:43;8.70;;;7.90;;
5871;SDS011;2962;51.312;7.378;2023-10-31T09:30:09;11.60;;;7.77;;
5871;SDS011;2962;51.312;7.378;2023-10-31T09:32:34;9.53;;;8.67;;
5871;SDS011;2962;51.312;7.378;2023-10-31T09:34:59;10.20;;;9.10;;
5871;SDS011;2962;51.312;7.378;2023-10-31T09:37:24;8.00;;;7.07;;
5871;SDS011;2962;51.312;7.378;2023-10-31T09:39:50;11.13;;;9.43;;
5871;SDS011;2962;51.312;7.378;2023-10-31T09:42:15;11.63;;;8.30;;
5871;SDS011;2962;51.312;7.378;2023-10-31T09:44:40;10.07;;;8.60;;
5871;SDS011;2962;51.312;7.378;2023-10-31T09:47:06;11.87;;;9.00;;
5871;SDS011;2962;51.312;7.378;2023-10-31T09:49:31;10.77;;;8.90;;
5871;SDS011;2962;51.312;7.378;2023-10-31T09:51:57;10.93;;;8.57;;
5871;SDS011;2962;51.312;7.378;2023-10-31T09:54:24;9.10;;;8.07;;
5871;SDS011;2962;51.312;7.378;2023-10-31T09:56:50;8.47;;;7.67;;
5871;SDS011;2962;51.312;7.378;2023-10-31T09:59:16;8.90;;;6.93;;
5871;SDS011;2962;51.312;7.378;2023-10-31T10:01:42;8.40;;;7.60;;
5871;SDS011;2962;51.312;7.378;2023-10-31T10:04:08;12.53;;;10.20;;
5871;SDS011;2962;51.312;7.378;2023-10-31T10:06:34;7.70;;;6.90;;
5871;SDS011;2962;51.312;7.378;2023-10-31T10:09:02;9.77;;;6.63;;
5871;SDS011;2962;51.312;7.378;2023-10-31T10:11:35;11.43;;;7.57;;
5871;SDS011;2962;51.312;7.378;2023-10-31T10:14:01;6.27;;;5.63;;
5871;SDS011;2962;51.312;7.378;2023-10-31T10:16:31;9.23;;;7.47;;
5871;SDS011;2962;51.312;7.378;2023-10-31T10:18:57;8.40;;;6.27;;
5871;SDS011;2962;51.312;7.378;2023-10-31T10:21:59;7.43;;;6.83;;
5871;SDS011;2962;51.312;7.378;2023-10-31T10:24:24;8.53;;;7.73;;
5871;SDS011;2962;51.312;7.378;2023-10-31T10:26:50;8.43;;;7.00;;
5871;SDS011;2962;51.312;7.378;2023-10-31T10:29:16;11.80;;;7.47;;
5871;SDS011;2962;51.312;7.378;2023-10-31T10:31:43;9.93;;;7.63;;
5871;SDS011;2962;51.312;7.378;2023-10-31T10:34:10;8.40;;;7.00;;
5871;SDS011;2962;51.312;7.378;2023-10-31T10:36:38;8.57;;;7.70;;
5871;SDS011;2962;51.312;7.378;2023-10-31T10:39:04;9.83;;;7.00;;
5871;SDS011;2962;51.312;7.378;2023-10-31T10:41:31;11.57;;;7.70;;
5871;SDS011;2962;51.312;7.378;2023-10-31T10:44:06;10.50;;;7.10;;
5871;SDS011;2962;51.312;7.378;2023-10-31T10:46:35;7.53;;;6.00;;
5871;SDS011;2962;51.312;7.378;2023-10-31T10:49:03;7.87;;;6.40;;
5871;SDS011;2962;51.312;7.378;2023-10-31T10:51:44;10.53;;;7.13;;
5871;SDS011;2962;51.312;7.378;2023-10-31T10:54:19;9.27;;;6.50;;
5871;SDS011;2962;51.312;7.378;2023-10-31T10:56:59;8.27;;;7.40;;
5871;SDS011;2962;51.312;7.378;2023-10-31T10:59:39;7.00;;;6.40;;
5871;SDS011;2962;51.312;7.378;2023-10-31T11:02:07;7.40;;;6.70;;
5871;SDS011;2962;51.312;7.378;2023-10-31T11:04:35;9.20;;;6.57;;
5871;SDS011;2962;51.312;7.378;2023-10-31T11:07:01;6.37;;;5.93;;
5871;SDS011;2962;51.312;7.378;2023-10-31T11:09:27;8.73;;;6.17;;
5871;SDS011;2962;51.312;7.378;2023-10-31T11:11:55;7.47;;;6.90;;
5871;SDS011;2962;51.312;7.378;2023-10-31T11:14:21;8.67;;;6.73;;
5871;SDS011;2962;51.312;7.378;2023-10-31T11:16:52;8.03;;;5.93;;
5871;SDS011;2962;51.312;7.378;2023-10-31T11:19:19;9.80;;;6.97;;
5871;SDS011;2962;51.312;7.378;2023-10-31T11:21:55;6.30;;;5.90;;
5871;SDS011;2962;51.312;7.378;2023-10-31T11:24:23;6.20;;;5.77;;
5871;SDS011;2962;51.312;7.378;2023-10-31T11:26:52;6.33;;;5.77;;
5871;SDS011;2962;51.312;7.378;2023-10-31T11:29:18;6.23;;;5.03;;
5871;SDS011;2962;51.312;7.378;2023-10-31T11:31:44;5.53;;;5.13;;
5871;SDS011;2962;51.312;7.378;2023-10-31T11:34:09;5.97;;;5.17;;
5871;SDS011;2962;51.312;7.378;2023-10-31T11:36:38;6.33;;;5.03;;
5871;SDS011;2962;51.312;7.378;2023-10-31T11:39:13;7.03;;;4.20;;
5871;SDS011;2962;51.312;7.378;2023-10-31T11:41:40;4.50;;;4.20;;
5871;SDS011;2962;51.312;7.378;2023-10-31T11:44:14;13.03;;;4.70;;
5871;SDS011;2962;51.312;7.378;2023-10-31T11:46:40;5.23;;;4.00;;
5871;SDS011;2962;51.312;7.378;2023-10-31T11:49:05;3.87;;;3.53;;
5871;SDS011;2962;51.312;7.378;2023-10-31T11:51:32;4.00;;;3.70;;
5871;SDS011;2962;51.312;7.378;2023-10-31T11:53:58;7.87;;;4.60;;
5871;SDS011;2962;51.312;7.378;2023-10-31T11:56:25;3.53;;;3.43;;
5871;SDS011;2962;51.312;7.378;2023-10-31T11:58:58;3.50;;;3.30;;
5871;SDS011;2962;51.312;7.378;2023-10-31T12:01:26;4.40;;;3.10;;
5871;SDS011;2962;51.312;7.378;2023-10-31T12:03:52;2.63;;;2.43;;
5871;SDS011;2962;51.312;7.378;2023-10-31T12:06:17;2.17;;;2.00;;
5871;SDS011;2962;51.312;7.378;2023-10-31T12:08:45;5.67;;;2.63;;
5871;SDS011;2962;51.312;7.378;2023-10-31T12:11:13;3.33;;;1.90;;
5871;SDS011;2962;51.312;7.378;2023-10-31T12:13:40;1.63;;;1.53;;
5871;SDS011;2962;51.312;7.378;2023-10-31T12:16:06;2.30;;;2.10;;
5871;SDS011;2962;51.312;7.378;2023-10-31T12:18:34;3.17;;;2.10;;
5871;SDS011;2962;51.312;7.378;2023-10-31T12:21:00;3.53;;;2.07;;
5871;SDS011;2962;51.312;7.378;2023-10-31T12:23:26;6.20;;;1.60;;
5871;SDS011;2962;51.312;7.378;2023-10-31T12:25:52;3.00;;;2.10;;
5871;SDS011;2962;51.312;7.378;2023-10-31T12:28:19;1.97;;;1.87;;
5871;SDS011;2962;51.312;7.378;2023-10-31T12:30:49;3.87;;;1.90;;
5871;SDS011;2962;51.312;7.378;2023-10-31T12:33:17;4.37;;;2.33;;
5871;SDS011;2962;51.312;7.378;2023-10-31T12:35:43;2.10;;;2.00;;
5871;SDS011;2962;51.312;7.378;2023-10-31T12:38:10;1.63;;;1.53;;
5871;SDS011;2962;51.312;7.378;2023-10-31T12:40:37;2.00;;;2.00;;
5871;SDS011;2962;51.312;7.378;2023-10-31T12:43:03;11.60;;;2.13;;
5871;SDS011;2962;51.312;7.378;2023-10-31T12:45:28;4.10;;;1.60;;
5871;SDS011;2962;51.312;7.378;2023-10-31T12:48:01;1.03;;;1.03;;
5871;SDS011;2962;51.312;7.378;2023-10-31T12:50:32;6.87;;;1.87;;
5871;SDS011;2962;51.312;7.378;2023-10-31T12:52:58;1.30;;;1.20;;
5871;SDS011;2962;51.312;7.378;2023-10-31T12:55:28;1.27;;;1.27;;
5871;SDS011;2962;51.312;7.378;2023-10-31T12:57:55;1.40;;;1.30;;
5871;SDS011;2962;51.312;7.378;2023-10-31T13:00:22;1.10;;;1.10;;
5871;SDS011;2962;51.312;7.378;2023-10-31T13:02:59;6.40;;;1.80;;
5871;SDS011;2962;51.312;7.378;2023-10-31T13:05:26;1.40;;;1.40;;
5871;SDS011;2962;51.312;7.378;2023-10-31T13:07:53;1.23;;;1.03;;
5871;SDS011;2962;51.312;7.378;2023-10-31T13:10:20;4.07;;;1.10;;
5871;SDS011;2962;51.312;7.378;2023-10-31T13:12:46;1.20;;;1.20;;
5871;SDS011;2962;51.312;7.378;2023-10-31T13:15:15;1.63;;;1.53;;
5871;SDS011;2962;51.312;7.378;2023-10-31T13:17:41;1.30;;;1.30;;
5871;SDS011;2962;51.312;7.378;2023-10-31T13:20:09;2.67;;;1.50;;
5871;SDS011;2962;51.312;7.378;2023-10-31T13:22:38;2.00;;;1.03;;
5871;SDS011;2962;51.312;7.378;2023-10-31T13:25:05;1.30;;;1.30;;
5871;SDS011;2962;51.312;7.378;2023-10-31T13:27:36;2.10;;;1.20;;
5871;SDS011;2962;51.312;7.378;2023-10-31T13:30:02;1.40;;;1.33;;
5871;SDS011;2962;51.312;7.378;2023-10-31T13:32:32;1.70;;;1.60;;
5871;SDS011;2962;51.312;7.378;2023-10-31T13:34:57;1.30;;;1.30;;
5871;SDS011;2962;51.312;7.378;2023-10-31T13:37:23;8.17;;;1.47;;
5871;SDS011;2962;51.312;7.378;2023-10-31T13:39:48;2.93;;;0.87;;
5871;SDS011;2962;51.312;7.378;2023-10-31T13:42:14;1.00;;;1.00;;
5871;SDS011;2962;51.312;7.378;2023-10-31T13:44:40;1.43;;;1.30;;
5871;SDS011;2962;51.312;7.378;2023-10-31T13:47:06;0.90;;;0.90;;
5871;SDS011;2962;51.312;7.378;2023-10-31T13:49:31;1.40;;;1.30;;
5871;SDS011;2962;51.312;7.378;2023-10-31T13:51:57;1.87;;;1.83;;
5871;SDS011;2962;51.312;7.378;2023-10-31T13:54:22;1.40;;;1.00;;
5871;SDS011;2962;51.312;7.378;2023-10-31T13:56:48;3.53;;;1.77;;
5871;SDS011;2962;51.312;7.378;2023-10-31T13:59:13;1.43;;;1.33;;
5871;SDS011;2962;51.312;7.378;2023-10-31T14:01:39;2.00;;;1.13;;
5871;SDS011;2962;51.312;7.378;2023-10-31T14:04:06;1.17;;;0.93;;
5871;SDS011;2962;51.312;7.378;2023-10-31T14:06:37;3.20;;;0.97;;
5871;SDS011;2962;51.312;7.378;2023-10-31T14:09:02;2.50;;;0.93;;
5871;SDS011;2962;51.312;7.378;2023-10-31T14:11:30;4.53;;;1.07;;
5871;SDS011;2962;51.312;7.378;2023-10-31T14:13:55;2.60;;;1.00;;
5871;SDS011;2962;51.312;7.378;2023-10-31T14:16:24;2.27;;;0.83;;
5871;SDS011;2962;51.312;7.378;2023-10-31T14:18:49;1.50;;;1.40;;
5871;SDS011;2962;51.312;7.378;2023-10-31T14:21:15;1.27;;;1.07;;
5871;SDS011;2962;51.312;7.378;2023-10-31T14:23:40;1.33;;;0.93;;
5871;SDS011;2962;51.312;7.378;2023-10-31T14:26:06;1.80;;;0.90;;
5871;SDS011;2962;51.312;7.378;2023-10-31T14:28:31;1.00;;;1.00;;
5871;SDS011;2962;51.312;7.378;2023-10-31T14:30:56;0.57;;;0.57;;
5871;SDS011;2962;51.312;7.378;2023-10-31T14:33:22;1.67;;;0.90;;
5871;SDS011;2962;51.312;7.378;2023-10-31T14:35:47;1.30;;;1.10;;
5871;SDS011;2962;51.312;7.378;2023-10-31T14:38:13;2.83;;;1.30;;
5871;SDS011;2962;51.312;7.378;2023-10-31T14:40:38;3.27;;;1.10;;
5871;SDS011;2962;51.312;7.378;2023-10-31T14:43:03;10.00;;;1.50;;
5871;SDS011;2962;51.312;7.378;2023-10-31T14:45:29;2.90;;;0.93;;
5871;SDS011;2962;51.312;7.378;2023-10-31T14:47:54;4.27;;;1.10;;
5871;SDS011;2962;51.312;7.378;2023-10-31T14:50:20;0.80;;;0.80;;
5871;SDS011;2962;51.312;7.378;2023-10-31T14:52:48;1.40;;;1.30;;
5871;SDS011;2962;51.312;7.378;2023-10-31T14:55:14;2.30;;;1.00;;
5871;SDS011;2962;51.312;7.378;2023-10-31T14:57:40;0.77;;;0.77;;
5871;SDS011;2962;51.312;7.378;2023-10-31T15:00:06;2.00;;;1.33;;
5871;SDS011;2962;51.312;7.378;2023-10-31T15:02:35;1.10;;;1.00;;
5871;SDS011;2962;51.312;7.378;2023-10-31T15:05:00;3.40;;;0.90;;
5871;SDS011;2962;51.312;7.378;2023-10-31T15:07:28;1.40;;;1.30;;